M I D A S
Marine Information and Data Acquisition System
Tripno 557 of the Zeeleeuw from 2003-08-27 06:17:15 to 2003-08-27 12:06:54
Back to CruiseResearch ActivitiesStationsMapUnderway DataData graphs

EquipmentUnitsComment
TimeDGPSUTC
LatitudeDGPSDM.mWGS84
LongitudeDGPSDM.mWGS84
HeadingGyrodeg 
SOGDGPSknotsSpeed over ground
COGDGPSdegCourse over ground
DepthEcho soundermeters200 kHz
Missing or incorrect values are displayed as -999
Navigation data collected by the RV Zeeleeuw from 2003-08-27 06:17:15 to 2003-08-27 12:06:54
                                                                                    Next 1000 lines
Time Latitude Longitude Heading SOG COG Depth
2003-08-27 06:17:23 51°13.6 2°56.11 126.7   12 6.6
2003-08-27 06:17:29 51°13.6 2°56.11 126.4   189 6.5
2003-08-27 06:17:33 51°13.6 2°56.11 125.9   148 6.5
2003-08-27 06:17:37 51°13.6 2°56.11 125.5   213 6.4
2003-08-27 06:17:41 51°13.6 2°56.11 125.1   181 6.5
2003-08-27 06:17:49 51°13.6 2°56.11 124.8   184 6.4
2003-08-27 06:17:53 51°13.6 2°56.11 124.1   222 6.5
2003-08-27 06:17:59 51°13.6 2°56.11 123.7   154 6.5
2003-08-27 06:18:03 51°13.6 2°56.11 123.3   295 6.5
2003-08-27 06:18:09 51°13.6 2°56.11 122.8   150 6.5
2003-08-27 06:18:13 51°13.6 2°56.11 122.5 0.1 204 6.6
2003-08-27 06:18:17 51°13.6 2°56.11 122.3   193 6.5
2003-08-27 06:18:21 51°13.6 2°56.11 121.9   198 6.5
2003-08-27 06:18:29 51°13.6 2°56.11 121.7   232 6.6
2003-08-27 06:18:33 51°13.6 2°56.11 121.3   135 6.5
2003-08-27 06:18:39 51°13.6 2°56.11 121.1   165 6.6
2003-08-27 06:18:45 51°13.6 2°56.11 120.6 0.1 183 6.5
2003-08-27 06:18:49 51°13.59 2°56.11 120.4   159 6.5
2003-08-27 06:18:53 51°13.59 2°56.11 120.1   217 6.5
2003-08-27 06:19:01 51°13.59 2°56.11 119.7   171 6.6
2003-08-27 06:19:07 51°13.6 2°56.11 119.4   227 6.6
2003-08-27 06:19:11 51°13.6 2°56.11 119.1   64 6.6
2003-08-27 06:19:17 51°13.6 2°56.11 119   220 6.6
2003-08-27 06:19:21 51°13.59 2°56.11 118.8   206 6.5
2003-08-27 06:19:27 51°13.59 2°56.11 118.5   127 6.5
2003-08-27 06:19:29 51°13.59 2°56.11 118.5   214 6.6
2003-08-27 06:19:37 51°13.59 2°56.11 118.3   145 6.5
2003-08-27 06:19:41 51°13.59 2°56.11 118.2   210 6.6
2003-08-27 06:19:45 51°13.59 2°56.11 118.1   252 6.5
2003-08-27 06:19:49 51°13.6 2°56.11 118.1   1 6.5
2003-08-27 06:19:57 51°13.6 2°56.11 118.1   249 6.6
2003-08-27 06:20:01 51°13.6 2°56.11 118.4   276 6.6
2003-08-27 06:20:07 51°13.6 2°56.11 118.7 0.1 26 6.5
2003-08-27 06:20:09 51°13.6 2°56.11 119.1   349 6.5
2003-08-27 06:20:17 51°13.6 2°56.11 119.6   356 6.5
2003-08-27 06:20:21 51°13.6 2°56.11 120 0.1 16 6.6
2003-08-27 06:20:25 51°13.6 2°56.11 120.5     6.6
2003-08-27 06:20:31 51°13.6 2°56.11 121.1   6 6.6
2003-08-27 06:20:37 51°13.6 2°56.11 121.5   326 6.5
2003-08-27 06:20:41 51°13.6 2°56.11 121.9   22 6.5
2003-08-27 06:20:47 51°13.6 2°56.11 122.4   311 6.5
2003-08-27 06:20:51 51°13.6 2°56.11 122.6   30 6.6
2003-08-27 06:20:57 51°13.6 2°56.11 122.9   207 6.6
2003-08-27 06:21:01 51°13.6 2°56.11 123.1   19 6.6
2003-08-27 06:21:05 51°13.6 2°56.11 123.2   216 6.5
2003-08-27 06:21:11 51°13.6 2°56.11 123.3   175 6.6
2003-08-27 06:21:17 51°13.6 2°56.11 123.3   186 6.5
2003-08-27 06:21:21 51°13.6 2°56.11 123.3   34 6.5
2003-08-27 06:21:27 51°13.6 2°56.11 123.4   190 6.5
2003-08-27 06:21:31 51°13.6 2°56.11 123.4   354 6.5
2003-08-27 06:21:37 51°13.6 2°56.11 123.3   242 6.5
2003-08-27 06:21:41 51°13.6 2°56.11 123.3   191 6.5
2003-08-27 06:21:45 51°13.6 2°56.11 123.3   341 6.5
2003-08-27 06:21:49 51°13.6 2°56.11 123.3   317 6.5
2003-08-27 06:21:57 51°13.6 2°56.11 123.3   31 6.5
2003-08-27 06:22:01 51°13.6 2°56.11 123.4   199 6.5
2003-08-27 06:22:07 51°13.6 2°56.11 123.8   358 6.5
2003-08-27 06:22:09 51°13.6 2°56.11 124.1   351 6.5
2003-08-27 06:22:17 51°13.6 2°56.11 124.5   19 6.7
2003-08-27 06:22:21 51°13.6 2°56.11 124.8   353 6.5
2003-08-27 06:22:27 51°13.6 2°56.11 125.3   312 6.5
2003-08-27 06:22:29 51°13.6 2°56.11 125.7   208 6.5
2003-08-27 06:22:37 51°13.6 2°56.11 126 0.1 237 6.6
2003-08-27 06:22:41 51°13.6 2°56.11 126.4   3 6.5
2003-08-27 06:22:47 51°13.6 2°56.11 126.7   194 6.5
2003-08-27 06:22:49 51°13.6 2°56.11 126.8   153 6.6
2003-08-27 06:22:57 51°13.6 2°56.11 126.8   106 6.5
2003-08-27 06:23:01 51°13.6 2°56.11 126.5   122 6.5
2003-08-27 06:23:07 51°13.6 2°56.11 126.2   167 6.5
2003-08-27 06:23:09 51°13.6 2°56.11 125.9   179 6.5
2003-08-27 06:23:17 51°13.6 2°56.11 125.5   105 6.4
2003-08-27 06:23:21 51°13.6 2°56.11 125.2   143 6.5
2003-08-27 06:23:27 51°13.6 2°56.11 124.7   193 6.4
2003-08-27 06:23:29 51°13.6 2°56.11 124.3   230 6.5
2003-08-27 06:23:37 51°13.6 2°56.11 123.6   206 6.6
2003-08-27 06:23:41 51°13.6 2°56.11 123.3   192 6.5
2003-08-27 06:23:47 51°13.6 2°56.11 122.8   184 6.6
2003-08-27 06:23:49 51°13.6 2°56.11 122.3   194 6.5
2003-08-27 06:23:57 51°13.6 2°56.11 121.9   179 6.6
2003-08-27 06:24:01 51°13.6 2°56.11 121.5   148 6.5
2003-08-27 06:24:05 51°13.6 2°56.11 121   163 6.6
2003-08-27 06:24:11 51°13.6 2°56.11 120.5   215 6.5
2003-08-27 06:24:17 51°13.6 2°56.11 120.2   186 6.5
2003-08-27 06:24:21 51°13.6 2°56.11 119.8   190 6.6
2003-08-27 06:24:25 51°13.6 2°56.11 119.3 0.1 205 6.7
2003-08-27 06:24:31 51°13.6 2°56.11 118.8 0.1 203 6.7
2003-08-27 06:24:37 51°13.6 2°56.11 118.1   201 6.5
2003-08-27 06:24:39 51°13.6 2°56.11 117.5 0.1 180 6.6
2003-08-27 06:24:49 51°13.6 2°56.11 116.5   206 6.5
2003-08-27 06:24:53 51°13.6 2°56.11 115.7   182 6.6
2003-08-27 06:24:57 51°13.6 2°56.11 115.1   252 6.5
2003-08-27 06:25:05 51°13.6 2°56.11 114.6 0.1 266 6.5
2003-08-27 06:25:09 51°13.6 2°56.11 114.5 0.6 293 6.6
2003-08-27 06:25:13 51°13.6 2°56.11 114.5 0.9 288 6.5
2003-08-27 06:25:19 51°13.6 2°56.11 114.5 1.4 294 6.6
2003-08-27 06:25:25 51°13.6 2°56.1 114.7 1.8 293 6.3
2003-08-27 06:25:29 51°13.6 2°56.1 115.4 2.2 294 -999
2003-08-27 06:25:35 51°13.6 2°56.09 115.9 2.6 294 -999
2003-08-27 06:25:41 51°13.6 2°56.09 116.1 2.9 295 -999
2003-08-27 06:25:45 51°13.6 2°56.08 115.9 3.2 295 -999
2003-08-27 06:25:51 51°13.61 2°56.07 115.3 3.6 293 -999
2003-08-27 06:25:55 51°13.61 2°56.07 114.3 4 292 -999
2003-08-27 06:26:01 51°13.61 2°56.06 113.2 4.1 290 -999
2003-08-27 06:26:05 51°13.61 2°56.05 113 4.2 290 -999
2003-08-27 06:26:11 51°13.61 2°56.04 113.2 4.3 289 -999
2003-08-27 06:26:15 51°13.62 2°56.03 113.9 4.5 290 -999
2003-08-27 06:26:21 51°13.62 2°56.02 114.9 4.6 290 -999
2003-08-27 06:26:25 51°13.62 2°56.01 115.8 4.7 291 -999
2003-08-27 06:26:31 51°13.62 2°56 116.8 4.8 291 -999
2003-08-27 06:26:35 51°13.63 2°55.99 117.3 4.9 291 -999
2003-08-27 06:26:41 51°13.63 2°55.98 117.6 5 291 -999
2003-08-27 06:26:45 51°13.63 2°55.97 117.8 5 291 -999
2003-08-27 06:26:51 51°13.63 2°55.96 118 5.1 291 -999
2003-08-27 06:26:55 51°13.63 2°55.95 118.1 5.2 290 -999
2003-08-27 06:27:01 51°13.64 2°55.94 118.1 5.2 290 -999
2003-08-27 06:27:05 51°13.64 2°55.93 117.6 5.3 289 -999
2003-08-27 06:27:11 51°13.64 2°55.92 117.4 5.3 289 -999
2003-08-27 06:27:15 51°13.64 2°55.91 117.5 5.5 290 -999
2003-08-27 06:27:21 51°13.65 2°55.89 119 5.6 294 -999
2003-08-27 06:27:25 51°13.65 2°55.88 123.2 5.6 297 -999
2003-08-27 06:27:31 51°13.66 2°55.87 127 5.6 304 -999
2003-08-27 06:27:35 51°13.66 2°55.86 129.2 5.5 305 -999
2003-08-27 06:27:41 51°13.66 2°55.85 130.1 5.2 308 -999
2003-08-27 06:27:45 51°13.67 2°55.85 130.6 4.9 306 9.2
2003-08-27 06:27:51 51°13.67 2°55.84 131.3 4.5 308 9
2003-08-27 06:27:55 51°13.68 2°55.83 131.5 3.8 305 9
2003-08-27 06:27:59 51°13.68 2°55.83 131 2.8 307 8.9
2003-08-27 06:28:05 51°13.68 2°55.82 129.2 2.1 303 9
2003-08-27 06:28:13 51°13.68 2°55.82 123 1.1 306 9
2003-08-27 06:28:19 51°13.68 2°55.82 119.8 0.7 309 9.1
2003-08-27 06:28:23 51°13.68 2°55.82 116.6 0.3 315 9.1
2003-08-27 06:28:29 51°13.68 2°55.82 113.1 0.3 323 9.2
2003-08-27 06:28:33 51°13.68 2°55.82 109.6 0.3 318 9.2
2003-08-27 06:28:39 51°13.68 2°55.82 107.1 0.3 309 9.4
2003-08-27 06:28:43 51°13.68 2°55.81 104.9 0.6 290 9.4
2003-08-27 06:28:49 51°13.68 2°55.81 102.5 0.8 288 9.5
2003-08-27 06:28:53 51°13.68 2°55.81 100.5 1.2 279 9.4
2003-08-27 06:28:57 51°13.68 2°55.81 98.7 1.3 280 9.4
2003-08-27 06:29:03 51°13.68 2°55.8 97.2 1.5 276 9.9
2003-08-27 06:29:13 51°13.68 2°55.8 95 2 273 -999
2003-08-27 06:29:19 51°13.68 2°55.79 93.6 2.1 273 -999
2003-08-27 06:29:25 51°13.68 2°55.79 92.2 2.2 270 -999
2003-08-27 06:29:29 51°13.68 2°55.78 91.2 2.3 270 -999
2003-08-27 06:29:35 51°13.68 2°55.78 90 2.2 267 -999
2003-08-27 06:29:39 51°13.68 2°55.77 89.2 2.1 267 -999
2003-08-27 06:29:45 51°13.68 2°55.77 88.6 2 266 -999
2003-08-27 06:29:49 51°13.68 2°55.76 87.8 1.7 266 -999
2003-08-27 06:29:55 51°13.68 2°55.76 86.1 1.2 260 -999
2003-08-27 06:29:59 51°13.68 2°55.76 83.4 1 265 -999
2003-08-27 06:30:05 51°13.68 2°55.76 81.3 0.8 254 11.9
2003-08-27 06:30:09 51°13.68 2°55.76 78.8 0.7 259 11.9
2003-08-27 06:30:13 51°13.68 2°55.76 76.8 0.3 245 11.9
2003-08-27 06:30:17 51°13.68 2°55.75 74.3 0.2 264 11.9
2003-08-27 06:30:23 51°13.68 2°55.75 71.5 0.1 57 12
2003-08-27 06:30:29 51°13.68 2°55.76 68.2 0.3 43 12
2003-08-27 06:30:33 51°13.68 2°55.76 64.6 0.4 59 12.1
2003-08-27 06:30:37 51°13.68 2°55.76 60.7 0.7 48 12.2
2003-08-27 06:30:41 51°13.68 2°55.76 56.6 0.9 47 12.4
2003-08-27 06:30:49 51°13.69 2°55.76 52.2 1 42 12.6
2003-08-27 06:30:53 51°13.69 2°55.76 47.7 1.2 37 12.8
2003-08-27 06:30:57 51°13.69 2°55.76 42.8 1.4 34 12.6
2003-08-27 06:31:05 51°13.69 2°55.76 37.7 1.5 30 12.8
2003-08-27 06:31:09 51°13.69 2°55.77 33.5 1.6 25 12.7
2003-08-27 06:31:13 51°13.69 2°55.77 28.3 1.9 19 12.8
2003-08-27 06:31:17 51°13.7 2°55.77 22.9 2 14 13.4
2003-08-27 06:31:21 51°13.7 2°55.77 15.6 2.2 7 12.8
2003-08-27 06:31:29 51°13.7 2°55.77 9.4 2.4 2 12.4
2003-08-27 06:31:33 51°13.71 2°55.77 3 2.5 357 12.6
2003-08-27 06:31:43 51°13.71 2°55.77 351.5 2.8 345 11.9
2003-08-27 06:31:49 51°13.72 2°55.76 345.2 3 336 11.1
2003-08-27 06:31:53 51°13.72 2°55.76 339.3 3.2 332 10.6
2003-08-27 06:31:57 51°13.73 2°55.76 334.2 3.5 328 10.2
2003-08-27 06:32:03 51°13.73 2°55.75 330.2 3.6 325 9.9
2003-08-27 06:32:07 51°13.73 2°55.75 326.8 3.8 321 9.6
2003-08-27 06:32:13 51°13.74 2°55.74 324.8 4.1 320 9.6
2003-08-27 06:32:17 51°13.74 2°55.74 323.4 4.8 317 9.8
2003-08-27 06:32:21 51°13.75 2°55.73 322.8 5.2 317 9.9
2003-08-27 06:32:29 51°13.76 2°55.72 322.7 5.8 318 9.8
2003-08-27 06:32:33 51°13.76 2°55.71 322.8 6.1 318 9.6
2003-08-27 06:32:37 51°13.77 2°55.7 323.3 6.5 319 9.6
2003-08-27 06:32:43 51°13.77 2°55.69 324.3 6.8 319 9.8
2003-08-27 06:32:45 51°13.78 2°55.69 325.4 7.2 320 9.8
2003-08-27 06:32:53 51°13.79 2°55.67 326.7 7.4 322 9.9
2003-08-27 06:32:57 51°13.8 2°55.66 328.2 7.7 324 10
2003-08-27 06:33:03 51°13.81 2°55.65 330.1 7.8 326 10
2003-08-27 06:33:09 51°13.82 2°55.64 332.1 8 328 10
2003-08-27 06:33:13 51°13.83 2°55.63 334 8.1 330 9.9
2003-08-27 06:33:21 51°13.84 2°55.62 338.2 8.1 334 9.4
2003-08-27 06:33:33 51°13.87 2°55.6 340.8 7.9 336 9.6
2003-08-27 06:33:37 51°13.88 2°55.6 341.1 7.7 335 9.8
2003-08-27 06:33:45 51°13.89 2°55.58 341.1 7.7 336 9.9
2003-08-27 06:33:49 51°13.9 2°55.58 340.9 7.6 335 10
2003-08-27 06:33:53 51°13.91 2°55.57 341.1 7.5 336 9.9
2003-08-27 06:33:57 51°13.91 2°55.57 341.4 7.5 336 10.1
2003-08-27 06:34:01 51°13.92 2°55.56 341.7 7.4 337 10
2003-08-27 06:34:09 51°13.94 2°55.55 342.2 7.4 337 9.9
2003-08-27 06:34:11 51°13.94 2°55.55 342.7 7.3 337 10.1
2003-08-27 06:34:19 51°13.95 2°55.54 342.8 7.3 338 10
2003-08-27 06:34:21 51°13.96 2°55.54 342.7 7.3 338 10.2
2003-08-27 06:34:29 51°13.97 2°55.53 342.3 7.3 337 10.1
2003-08-27 06:34:33 51°13.98 2°55.52 341.8 7.4 337 9.9
2003-08-27 06:34:39 51°13.99 2°55.51 341.8 7.4 337 9.9
2003-08-27 06:34:41 51°14 2°55.51 341.9 7.5 337 9.8
2003-08-27 06:34:49 51°14.01 2°55.5 342.2 7.5 337 9.7
2003-08-27 06:34:53 51°14.02 2°55.49 342.3 7.5 336 9.7
2003-08-27 06:34:59 51°14.03 2°55.49 341.6 7.5 336 9.7
2003-08-27 06:35:03 51°14.04 2°55.48 341.1 7.5 335 9.9
2003-08-27 06:35:09 51°14.05 2°55.47 340.9 7.5 336 9.8
2003-08-27 06:35:13 51°14.06 2°55.47 341 7.6 335 9.7
2003-08-27 06:35:19 51°14.07 2°55.46 341.1 7.6 336 9.6
2003-08-27 06:35:23 51°14.08 2°55.45 341.1 7.6 336 9.7
2003-08-27 06:35:29 51°14.09 2°55.44 341.1 7.6 336 9.6
2003-08-27 06:35:33 51°14.1 2°55.44 341.1 7.6 335 9.7
2003-08-27 06:35:37 51°14.1 2°55.43 341.1 7.6 335 9.7
2003-08-27 06:35:45 51°14.12 2°55.42 341.1 7.6 335 9.7
2003-08-27 06:35:49 51°14.13 2°55.42 340.7 7.6 335 9.8
2003-08-27 06:35:53 51°14.13 2°55.41 340.3 7.7 334 9.7
2003-08-27 06:36:03 51°14.15 2°55.4 339.1 7.7 333 10
2003-08-27 06:36:07 51°14.16 2°55.39 338 7.8 332 10.1
2003-08-27 06:36:13 51°14.17 2°55.38 336.7 7.9 331 10.1
2003-08-27 06:36:17 51°14.18 2°55.37 335.5 8.1 329 10.1
2003-08-27 06:36:23 51°14.19 2°55.36 333.6 8.2 328 10.3
2003-08-27 06:36:27 51°14.2 2°55.35 332 8.4 326 10.1
2003-08-27 06:36:33 51°14.21 2°55.34 330.4 8.5 324 10.1
2003-08-27 06:36:37 51°14.22 2°55.33 329.1 8.6 323 9.9
2003-08-27 06:36:43 51°14.23 2°55.32 328.4 8.7 323 10
2003-08-27 06:36:45 51°14.23 2°55.31 328 8.8 322 9.9
2003-08-27 06:36:53 51°14.25 2°55.29 327.4 9 321 10
2003-08-27 06:36:57 51°14.26 2°55.28 325.9 9.1 320 10.1
2003-08-27 06:37:01 51°14.26 2°55.27 324.5 9.3 318 10
2003-08-27 06:37:17 51°14.29 2°55.22 321.1 9.5 313 10.1
2003-08-27 06:37:23 51°14.31 2°55.21 319.3 9.5 312 10
2003-08-27 06:37:25 51°14.31 2°55.2 317.4 9.6 310 10
2003-08-27 06:37:33 51°14.32 2°55.18 315.4 9.6 309 10
2003-08-27 06:37:37 51°14.33 2°55.16 314.6 9.7 309 9.9
2003-08-27 06:37:43 51°14.34 2°55.14 314.5 9.6 309 10
2003-08-27 06:37:49 51°14.35 2°55.12 314.8 9.6 309 9.2
2003-08-27 06:37:53 51°14.36 2°55.11 314.2 9.7 308 9
2003-08-27 06:37:57 51°14.36 2°55.09 313.5 9.6 307 9.6
2003-08-27 06:38:03 51°14.37 2°55.07 312.7 9.7 307 10
2003-08-27 06:38:07 51°14.38 2°55.06 312.7 9.8 307 10
2003-08-27 06:38:13 51°14.39 2°55.04 313 9.8 306 10.3
2003-08-27 06:38:17 51°14.39 2°55.03 313.5 9.8 306 10.3
2003-08-27 06:38:23 51°14.4 2°55 314 9.8 305 10
2003-08-27 06:38:25 51°14.41 2°55 313.8 9.7 305 9.4
2003-08-27 06:38:33 51°14.42 2°54.97 313.6 9.7 304 9.8
2003-08-27 06:38:43 51°14.44 2°54.93 315.4 9.8 305 9.6
2003-08-27 06:38:47 51°14.44 2°54.92 317.5 9.8 306 9.6
2003-08-27 06:38:53 51°14.45 2°54.9 319 9.8 307 9.6
2003-08-27 06:38:57 51°14.46 2°54.89 321.3 9.7 310 9.5
2003-08-27 06:39:03 51°14.47 2°54.87 323.3 9.8 311 9.1
2003-08-27 06:39:07 51°14.48 2°54.85 324.7 10 314 -999
2003-08-27 06:39:13 51°14.49 2°54.84 326 10.2 315 8.9
2003-08-27 06:39:17 51°14.5 2°54.82 327.5 10.5 316 9
2003-08-27 06:39:23 51°14.51 2°54.8 329.2 10.6 318 9
2003-08-27 06:39:27 51°14.52 2°54.79 330.1 10.7 319 8.9
2003-08-27 06:39:33 51°14.53 2°54.77 331.5 10.8 320 8.8
2003-08-27 06:39:37 51°14.54 2°54.76 331.8 10.9 319 8.8
2003-08-27 06:39:41 51°14.55 2°54.75 331.8 11 320 8.9
2003-08-27 06:39:49 51°14.57 2°54.72 332.1 11.1 321 8.8
2003-08-27 06:39:53 51°14.58 2°54.71 333.2 11.2 322 8.8
2003-08-27 06:39:57 51°14.59 2°54.7 333.9 11 322 8.5
2003-08-27 06:40:03 51°14.6 2°54.68 334.2 11.2 322 8.4
2003-08-27 06:40:07 51°14.61 2°54.67 334.2 11.2 322 8.4
2003-08-27 06:40:13 51°14.63 2°54.65 334.2 11.3 322 8.5
2003-08-27 06:40:17 51°14.64 2°54.64 335.1 11.4 323 8.4
2003-08-27 06:40:21 51°14.65 2°54.63 337 11.4 325 8.5
2003-08-27 06:40:29 51°14.67 2°54.6 338.1 11.5 326 8.5
2003-08-27 06:40:33 51°14.68 2°54.59 339.6 11.5 327 8.6
2003-08-27 06:40:37 51°14.69 2°54.58 340.2 11.6 328 8.6
2003-08-27 06:40:43 51°14.71 2°54.57 341.2 11.5 330 8.7
2003-08-27 06:40:45 51°14.71 2°54.56 343 11.5 332 8.6
2003-08-27 06:40:53 51°14.74 2°54.54 344.7 11.6 333 8.5
2003-08-27 06:40:57 51°14.75 2°54.53 346.5 11.4 336 8.5
2003-08-27 06:41:03 51°14.77 2°54.52 348.6 11.4 338 8.5
2003-08-27 06:41:09 51°14.78 2°54.51 350.2 11.3 340 8.5
2003-08-27 06:41:13 51°14.8 2°54.51 351.6 11.4 341 8.4
2003-08-27 06:41:17 51°14.81 2°54.5 352 11.4 341 8.4
2003-08-27 06:41:23 51°14.83 2°54.49 352 11.4 340 8.4
2003-08-27 06:41:25 51°14.83 2°54.49 350.4 11.4 337 8.4
2003-08-27 06:41:33 51°14.85 2°54.47 347.8 11.4 336 8.4
2003-08-27 06:41:37 51°14.87 2°54.46 345.5 11.5 333 8.4
2003-08-27 06:41:43 51°14.88 2°54.45 343.7 11.5 331 8.4
2003-08-27 06:41:45 51°14.89 2°54.44 341.7 11.6 329 8.3
2003-08-27 06:41:53 51°14.91 2°54.42 340.7 11.6 330 8.1
2003-08-27 06:41:57 51°14.92 2°54.41 340.7 11.5 330 7.9
2003-08-27 06:42:01 51°14.93 2°54.4 341.1 11.5 331 7.8
2003-08-27 06:42:13 51°14.97 2°54.37 341.8 11.4 331 7.7
2003-08-27 06:42:17 51°14.98 2°54.36 341.8 11.4 331 7.6
2003-08-27 06:42:23 51°14.99 2°54.35 342 11.4 331 7.7
2003-08-27 06:42:25 51°15 2°54.34 342.3 11.4 331 7.6
2003-08-27 06:42:33 51°15.02 2°54.32 342.5 11.4 331 7.6
2003-08-27 06:42:37 51°15.03 2°54.31 342.8 11.6 331 7.6
2003-08-27 06:42:43 51°15.05 2°54.3 343.3 11.6 331 7.6
2003-08-27 06:42:45 51°15.06 2°54.29 343.2 11.8 331 7.6
2003-08-27 06:42:53 51°15.08 2°54.27 343.3 11.8 331 7.7
2003-08-27 06:42:57 51°15.09 2°54.26 343.3 11.8 331 7.6
2003-08-27 06:43:03 51°15.11 2°54.25 343.7 11.9 331 7.7
2003-08-27 06:43:07 51°15.12 2°54.24 343.9 11.9 332 7.7
2003-08-27 06:43:13 51°15.14 2°54.22 344.1 11.9 331 7.9
2003-08-27 06:43:17 51°15.15 2°54.21 343.9 12.1 331 8
2003-08-27 06:43:23 51°15.16 2°54.19 343.8 12.1 331 7.9
2003-08-27 06:43:29 51°15.18 2°54.18 343.7 12.1 331 7.9
2003-08-27 06:43:33 51°15.19 2°54.17 343.2 12.1 330 8
2003-08-27 06:43:43 51°15.22 2°54.14 342.6 12.2 330 8.1
2003-08-27 06:43:47 51°15.24 2°54.13 342.5 12.1 329 8.1
2003-08-27 06:43:53 51°15.25 2°54.11 342.2 12.1 330 8.2
2003-08-27 06:43:57 51°15.26 2°54.1 342.3 12.2 330 8.3
2003-08-27 06:44:03 51°15.28 2°54.09 342.3 12.2 330 8.3
2003-08-27 06:44:07 51°15.29 2°54.08 342.8 12.3 331 8.5
2003-08-27 06:44:13 51°15.31 2°54.06 343.2 12.2 331 8.6
2003-08-27 06:44:17 51°15.32 2°54.05 343.6 12.1 331 8.5
2003-08-27 06:44:25 51°15.35 2°54.03 343.1 12.2 329 8.6
2003-08-27 06:44:29 51°15.36 2°54.02 342.1 12.2 329 8.5
2003-08-27 06:44:33 51°15.37 2°54.01 341.8 12.2 328 8.7
2003-08-27 06:44:41 51°15.39 2°53.98 341.4 12.2 328 8.8
2003-08-27 06:44:45 51°15.4 2°53.97 341.2 12.3 328 9
2003-08-27 06:44:49 51°15.42 2°53.96 341.4 12.2 329 8.9
2003-08-27 06:44:57 51°15.44 2°53.94 341.8 12.2 330 8.9
2003-08-27 06:45:01 51°15.45 2°53.93 342.4 12.2 330 9
2003-08-27 06:45:05 51°15.46 2°53.92 343.3 12.2 331 9.1
2003-08-27 06:45:09 51°15.47 2°53.91 343.3 12.2 330 9.2
2003-08-27 06:45:13 51°15.49 2°53.9 342.9 12.2 330 9.2
2003-08-27 06:45:21 51°15.51 2°53.88 342.5 12.2 329 9.4
2003-08-27 06:45:25 51°15.52 2°53.86 342.3 12.2 329 9.4
2003-08-27 06:45:31 51°15.54 2°53.85 342 12.3 328 9.4
2003-08-27 06:45:33 51°15.54 2°53.84 341.3 12.3 327 9.5
2003-08-27 06:45:41 51°15.57 2°53.82 341.1 12.3 328 9.6
2003-08-27 06:45:45 51°15.58 2°53.81 341 12.3 328 9.6
2003-08-27 06:45:51 51°15.6 2°53.79 341.5 12.3 328 9.6
2003-08-27 06:45:55 51°15.61 2°53.78 342 12.3 328 9.8
2003-08-27 06:46:01 51°15.62 2°53.76 342.2 12.3 328 9.9
2003-08-27 06:46:05 51°15.64 2°53.75 342.5 12.2 328 9.8
2003-08-27 06:46:11 51°15.65 2°53.73 342.7 12.1 329 9.8
2003-08-27 06:46:15 51°15.67 2°53.72 342.7 12.2 329 10.1
2003-08-27 06:46:25 51°15.69 2°53.69 343.3 12.1 330 10
2003-08-27 06:46:31 51°15.71 2°53.68 343.7 12.2 331 10.1
2003-08-27 06:46:37 51°15.73 2°53.66 343.9 12.1 330 10.2
2003-08-27 06:46:41 51°15.74 2°53.65 343.4 12.1 329 10.4
2003-08-27 06:46:45 51°15.75 2°53.64 342.7 12 329 10.3
2003-08-27 06:46:51 51°15.77 2°53.62 341.9 12 328 10.3
2003-08-27 06:46:53 51°15.77 2°53.62 341.8 12.1 329 10.5
2003-08-27 06:47:01 51°15.8 2°53.59 342 12.1 329 10.5
2003-08-27 06:47:05 51°15.81 2°53.58 342.1 12.2 329 10.5
2003-08-27 06:47:09 51°15.82 2°53.57 342.1 12.1 328 10.5
2003-08-27 06:47:15 51°15.84 2°53.56 342.4 12.1 328 10.5
2003-08-27 06:47:21 51°15.86 2°53.54 341.8 12.1 328 10.6
2003-08-27 06:47:25 51°15.87 2°53.53 341.6 12.2 327 10.8
2003-08-27 06:47:31 51°15.88 2°53.51 341.1 12.1 327 10.6
2003-08-27 06:47:33 51°15.89 2°53.5 341.1 12.1 328 10.8
2003-08-27 06:47:41 51°15.91 2°53.48 341.4 12.1 328 10.9
2003-08-27 06:47:45 51°15.92 2°53.47 342 12 329 10.8
2003-08-27 06:47:49 51°15.94 2°53.46 342.6 12.1 330 10.8
2003-08-27 06:47:53 51°15.95 2°53.45 342.8 12.1 329 10.8
2003-08-27 06:48:01 51°15.97 2°53.43 342.7 12.1 329 10.9
2003-08-27 06:48:05 51°15.98 2°53.42 342.2 12.2 328 11.1
2003-08-27 06:48:09 51°15.99 2°53.4 341.8 12.1 328 11
2003-08-27 06:48:15 51°16.01 2°53.39 341.1 12.2 328 11
2003-08-27 06:48:25 51°16.04 2°53.36 340.7 12.1 328 11
2003-08-27 06:48:31 51°16.06 2°53.34 341.1 12.1 328 11
2003-08-27 06:48:35 51°16.07 2°53.33 341.8 12.2 329 11.3
2003-08-27 06:48:41 51°16.08 2°53.31 342.1 12.1 329 11.1
2003-08-27 06:48:45 51°16.1 2°53.3 342.4 12.1 330 11.2
2003-08-27 06:48:49 51°16.11 2°53.29 342.5 12.1 329 11.2
2003-08-27 06:48:57 51°16.13 2°53.27 342.5 12.1 328 11.1
2003-08-27 06:49:01 51°16.14 2°53.26 341.8 12.1 327 11.2
2003-08-27 06:49:05 51°16.15 2°53.25 341.1 12.2 327 11.3
2003-08-27 06:49:11 51°16.17 2°53.23 341.1 12.3 328 11.3
2003-08-27 06:49:13 51°16.18 2°53.22 341.4 12.2 328 11.3
2003-08-27 06:49:21 51°16.2 2°53.2 341.6 12.3 328 11.5
2003-08-27 06:49:25 51°16.21 2°53.19 341.8 12.4 328 11.5
2003-08-27 06:49:33 51°16.23 2°53.16 342.5 12.4 329 11.5
2003-08-27 06:49:37 51°16.25 2°53.15 342.8 12.4 329 11.6
2003-08-27 06:49:41 51°16.26 2°53.14 343 12.6 329 11.6
2003-08-27 06:49:49 51°16.28 2°53.12 343 12.6 329 11.5
2003-08-27 06:49:53 51°16.29 2°53.11 342.7 12.6 329 11.6
2003-08-27 06:49:57 51°16.31 2°53.1 342.4 12.6 329 11.5
2003-08-27 06:50:03 51°16.32 2°53.08 341.8 12.6 328 11.6
2003-08-27 06:50:09 51°16.34 2°53.06 341.3 12.7 327 11.5
2003-08-27 06:50:13 51°16.35 2°53.05 341.1 12.7 327 11.5
2003-08-27 06:50:25 51°16.39 2°53.01 342 12.7 329 11.6
2003-08-27 06:50:29 51°16.4 2°53 342.8 12.5 332 11.5
2003-08-27 06:50:33 51°16.41 2°52.99 343.9 12.6 333 11.3
2003-08-27 06:50:39 51°16.43 2°52.98 344.3 12.5 333 11.3
2003-08-27 06:50:45 51°16.45 2°52.96 344 12.5 332 11.2
2003-08-27 06:50:49 51°16.46 2°52.95 343.3 12.6 332 11.3
2003-08-27 06:50:53 51°16.47 2°52.94 342.7 12.5 332 11.1
2003-08-27 06:51:01 51°16.5 2°52.92 342.5 12.5 331 11.1
2003-08-27 06:51:05 51°16.51 2°52.91 342.2 12.5 331 10.9
2003-08-27 06:51:09 51°16.52 2°52.9 341.8 12.5 330 11
2003-08-27 06:51:13 51°16.54 2°52.89 341.4 12.6 330 10.8
2003-08-27 06:51:17 51°16.55 2°52.88 341.4 12.5 330 10.7
2003-08-27 06:51:25 51°16.57 2°52.85 341.4 12.5 331 10.7
2003-08-27 06:51:29 51°16.58 2°52.84 341.7 12.6 331 10.7
2003-08-27 06:51:33 51°16.6 2°52.83 341.8 12.5 331 10.6
2003-08-27 06:51:37 51°16.61 2°52.82 342.3 12.5 331 10.4
2003-08-27 06:51:45 51°16.63 2°52.8 342.2 12.4 332 10.4
2003-08-27 06:51:49 51°16.64 2°52.79 342.5 12.5 332 10.4
2003-08-27 06:51:53 51°16.66 2°52.78 342.8 12.5 332 10.2
2003-08-27 06:51:59 51°16.67 2°52.76 342.7 12.4 332 9.9
2003-08-27 06:52:05 51°16.69 2°52.75 342.8 12.5 332 9.9
2003-08-27 06:52:09 51°16.7 2°52.74 342.9 12.3 332 9.6
2003-08-27 06:52:15 51°16.72 2°52.72 342.5 12.3 332 9.5
2003-08-27 06:52:21 51°16.74 2°52.71 342.1 12.4 331 9.4
2003-08-27 06:52:25 51°16.75 2°52.7 341.8 12.3 331 8.8
2003-08-27 06:52:29 51°16.76 2°52.68 341.1 12.2 330 8.6
2003-08-27 06:52:33 51°16.78 2°52.67 340.9 12.2 331 8.9
2003-08-27 06:52:37 51°16.79 2°52.66 342.2 12 333 8.9
2003-08-27 06:52:45 51°16.81 2°52.64 343.4 12.2 334 8.8
2003-08-27 06:52:49 51°16.82 2°52.64 344.9 12.2 336 8.7
2003-08-27 06:52:55 51°16.84 2°52.62 347.9 12.2 339 8.4
2003-08-27 06:52:59 51°16.86 2°52.62 349.7 11.7 341 8.4
2003-08-27 06:53:05 51°16.87 2°52.61 351.5 11.7 342 8.8
2003-08-27 06:53:09 51°16.89 2°52.6 352.3 11.8 343 8.8
2003-08-27 06:53:13 51°16.9 2°52.6 353.1 11.8 343 8.7
2003-08-27 06:53:25 51°16.94 2°52.58 354.1 12 344 9.1
2003-08-27 06:53:35 51°16.97 2°52.56 352.8 12 341 9.1
2003-08-27 06:53:37 51°16.98 2°52.56 352.3 12 341 9
2003-08-27 06:53:45 51°17 2°52.54 352.1 12 341 8.9
2003-08-27 06:53:49 51°17.01 2°52.54 352.2 12 341 8.8
2003-08-27 06:53:53 51°17.03 2°52.53 352.7 12 342 8.7
2003-08-27 06:53:59 51°17.05 2°52.52 353.4 12 343 8.9
2003-08-27 06:54:05 51°17.06 2°52.51 353.6 12 343 8.5
2003-08-27 06:54:09 51°17.08 2°52.51 354 12 343 8.7
2003-08-27 06:54:13 51°17.09 2°52.5 354.1 11.9 344 8.6
2003-08-27 06:54:19 51°17.11 2°52.49 354.1 12 343 9
2003-08-27 06:54:25 51°17.13 2°52.48 353.6 12.1 343 9
2003-08-27 06:54:29 51°17.14 2°52.47 352.9 12 342 9.1
2003-08-27 06:54:33 51°17.15 2°52.47 352.6 12.1 342 8.8
2003-08-27 06:54:39 51°17.17 2°52.46 352.2 12.2 341 9.1
2003-08-27 06:54:45 51°17.19 2°52.45 353.8 12 344 9.1
2003-08-27 06:54:49 51°17.21 2°52.44 355.2 12 346 9.2
2003-08-27 06:54:53 51°17.22 2°52.44 357.6 12 348 8.9
2003-08-27 06:54:59 51°17.24 2°52.43 358.6 11.9 349 9.2
2003-08-27 06:55:05 51°17.26 2°52.43   11.9 350 9.2
2003-08-27 06:55:09 51°17.27 2°52.42 0.5 11.9 350 9.3
2003-08-27 06:55:13 51°17.28 2°52.42 0.7 11.9 350 9.6
2003-08-27 06:55:21 51°17.31 2°52.41 0.7 11.9 350 9.2
2003-08-27 06:55:25 51°17.32 2°52.41 0.5 12 350 9.5
2003-08-27 06:55:29 51°17.34 2°52.4 0.1 11.9 349 9.6
2003-08-27 06:55:33 51°17.35 2°52.4   11.9 349 9.7
2003-08-27 06:55:41 51°17.37 2°52.39 359.6 12 349 9.3
2003-08-27 06:55:49 51°17.4 2°52.38 359.6 11.9 349 9.4
2003-08-27 06:55:53 51°17.41 2°52.38 359.6 12 349 9.2
2003-08-27 06:55:57 51°17.43 2°52.38 359.5 11.9 349 9.4
2003-08-27 06:56:01 51°17.44 2°52.37 359.6 11.9 349 9.3
2003-08-27 06:56:05 51°17.45 2°52.37 359.6 12 348 9.6
2003-08-27 06:56:13 51°17.48 2°52.36 359.5 12 348 9.7
2003-08-27 06:56:17 51°17.49 2°52.36 359.6 12 349 9.4
2003-08-27 06:56:21 51°17.5 2°52.35 359.8 12 349 9.6
2003-08-27 06:56:29 51°17.53 2°52.34 359.8 11.9 348 9.6
2003-08-27 06:56:31 51°17.54 2°52.34   11.9 349 9.7
2003-08-27 06:56:37 51°17.56 2°52.33 359.8 12 348 9.6
2003-08-27 06:56:43 51°17.58 2°52.33 359.9 12 349 9.7
2003-08-27 06:56:49 51°17.6 2°52.32 359.9 11.9 348 9.3
2003-08-27 06:56:53 51°17.61 2°52.32 359.9 11.9 348 9.4
2003-08-27 06:56:57 51°17.62 2°52.31 359.6 11.9 349 9.4
2003-08-27 06:57:01 51°17.63 2°52.31 359.6 11.9 348 9.5
2003-08-27 06:57:09 51°17.66 2°52.3 359.6 11.9 348 9.7
2003-08-27 06:57:13 51°17.67 2°52.3 359.4 11.9 348 9.3
2003-08-27 06:57:17 51°17.69 2°52.29 359.3 11.9 348 9.5
2003-08-27 06:57:23 51°17.71 2°52.28 359.1 11.8 348 9.4
2003-08-27 06:57:29 51°17.73 2°52.28 358.8 12 347 9.6
2003-08-27 06:57:33 51°17.74 2°52.27 359.1 11.9 348 9.3
2003-08-27 06:57:37 51°17.75 2°52.27 359.4 12 348 9.7
2003-08-27 06:57:43 51°17.77 2°52.26 359.7 12 349 9.5
2003-08-27 06:57:45 51°17.78 2°52.26 0.1 12 349 9.6
2003-08-27 06:57:53 51°17.8 2°52.25 0.2 12 349 9.4
2003-08-27 06:57:57 51°17.82 2°52.25 359.9 12 348 9.6
2003-08-27 06:58:03 51°17.84 2°52.24 0.7 12 350 9.7
2003-08-27 06:58:05 51°17.84 2°52.24 2.1 11.8 351 9.7
2003-08-27 06:58:13 51°17.87 2°52.24 3.2 11.8 353 9.5
2003-08-27 06:58:17 51°17.88 2°52.23 4.8 11.9 354 9.5
2003-08-27 06:58:23 51°17.9 2°52.23 5.6 11.9 355 9.7
2003-08-27 06:58:29 51°17.92 2°52.23 6.1 11.7 355 9.7
2003-08-27 06:58:33 51°17.93 2°52.23 6.9 11.7 355 9.8
2003-08-27 06:58:41 51°17.96 2°52.22 5.9 11.8 354 9.7
2003-08-27 06:58:47 51°17.98 2°52.22 5.9 11.8 354 9.7
2003-08-27 06:58:53 51°18 2°52.22 5.7 11.8 354 9.6
2003-08-27 06:58:57 51°18.01 2°52.21 5.5 11.8 354 9.8
2003-08-27 06:59:01 51°18.02 2°52.21 5.5 11.8 354 9.8
2003-08-27 06:59:05 51°18.04 2°52.21 5.8 11.7 354 9.8
2003-08-27 06:59:13 51°18.06 2°52.21 5.4 11.8 354 10
2003-08-27 06:59:17 51°18.08 2°52.2 5.4 11.9 355 10
2003-08-27 06:59:21 51°18.09 2°52.2 5.8 11.9 354 10
2003-08-27 06:59:29 51°18.12 2°52.2 6 11.7 357 9.9
2003-08-27 06:59:31 51°18.12 2°52.2 8.2 11.7 359 10
2003-08-27 06:59:37 51°18.14 2°52.2 11 11.6 4 10.1
2003-08-27 06:59:41 51°18.15 2°52.2 16.2 11.5 8 10
2003-08-27 06:59:49 51°18.18 2°52.21 19.4 11.5 12 9.9
2003-08-27 06:59:53 51°18.19 2°52.21 22.9 11.4 15 10.2
2003-08-27 06:59:55 51°18.2 2°52.22 25 11.3 19 10.1
2003-08-27 07:00:09 51°18.24 2°52.24 31.2 11.3 24 10.1
2003-08-27 07:00:13 51°18.25 2°52.25 33 11.4 26 10.3
2003-08-27 07:00:19 51°18.27 2°52.27 33.8 11.4 26 10.2
2003-08-27 07:00:21 51°18.27 2°52.27 34.7 11.3 28 10.4
2003-08-27 07:00:29 51°18.29 2°52.29 35.5 11.2 29 10.2
2003-08-27 07:00:31 51°18.3 2°52.29 37.3 11.4 32 10.4
2003-08-27 07:00:45 51°18.34 2°52.33 42.9 11.2 37 10.3
2003-08-27 07:00:49 51°18.34 2°52.35 44.7 11.1 40 10.3
2003-08-27 07:00:53 51°18.35 2°52.36 46.6 11 43 10.5
2003-08-27 07:00:57 51°18.36 2°52.37 49.1 11.1 47 10.4
2003-08-27 07:01:05 51°18.38 2°52.4 52.9 11.1 50 10.5
2003-08-27 07:01:09 51°18.39 2°52.42 55.8 11.1 53 10.5
2003-08-27 07:01:21 51°18.41 2°52.47 60.7 11.2 57 10.4
2003-08-27 07:01:25 51°18.41 2°52.49 62.2 11.2 60 10.5
2003-08-27 07:01:29 51°18.42 2°52.5 63.4 11.3 60 10.5
2003-08-27 07:01:33 51°18.43 2°52.52 65 11.2 64 10.4
2003-08-27 07:01:41 51°18.44 2°52.56 66 11.2 63 10.5
2003-08-27 07:01:45 51°18.44 2°52.58 66.7 11.3 65 10.5
2003-08-27 07:01:51 51°18.45 2°52.6 66.9 11.3 63 10.5
2003-08-27 07:01:57 51°18.46 2°52.63 67.3 11.3 66 10.5
2003-08-27 07:02:01 51°18.46 2°52.65 67.5 11.4 64 10.5
2003-08-27 07:02:05 51°18.47 2°52.67 67.5 11.5 66 10.5
2003-08-27 07:02:09 51°18.47 2°52.69 67.9 11.4 66 10.6
2003-08-27 07:02:21 51°18.49 2°52.74 68.9 11.5 67 10.5
2003-08-27 07:02:25 51°18.49 2°52.76 68.9 11.5 67 10.5
2003-08-27 07:02:31 51°18.5 2°52.79 68.9 11.6 66 10.5
2003-08-27 07:02:33 51°18.51 2°52.8 68.8 11.6 66 10.6
2003-08-27 07:02:41 51°18.52 2°52.83 68.8 11.6 67 10.6
2003-08-27 07:02:45 51°18.52 2°52.85 69.1 11.6 68 10.6
2003-08-27 07:02:51 51°18.53 2°52.88 69.2 11.5 66 10.6
2003-08-27 07:02:53 51°18.53 2°52.89 69.6 11.5 68 10.6
2003-08-27 07:03:01 51°18.54 2°52.93 70.2 11.6 67 10.6
2003-08-27 07:03:05 51°18.55 2°52.95 70.4 11.7 67 10.6
2003-08-27 07:03:11 51°18.55 2°52.97 70 11.6 67 10.5
2003-08-27 07:03:13 51°18.56 2°52.98 70.5 11.6 68 10.6
2003-08-27 07:03:21 51°18.56 2°53.02 70.5 11.7 68 10.6
2003-08-27 07:03:25 51°18.57 2°53.04 70.8 11.6 68 10.6
2003-08-27 07:03:31 51°18.58 2°53.07 70.9 11.7 69 10.6
2003-08-27 07:03:33 51°18.58 2°53.08 71 11.6 68 10.5
2003-08-27 07:03:41 51°18.59 2°53.12 70.9 11.6 69 10.5
2003-08-27 07:03:51 51°18.6 2°53.17 70.8 11.7 69 10.5
2003-08-27 07:04:01 51°18.61 2°53.21 71.5 11.5 69 10.6
2003-08-27 07:04:05 51°18.62 2°53.23 71.6 11.6 70 10.7
2003-08-27 07:04:13 51°18.62 2°53.27 71.8 11.6 70 10.5
2003-08-27 07:04:17 51°18.63 2°53.29 71.9 11.6 70 10.6
2003-08-27 07:04:21 51°18.63 2°53.31 72.1 11.5 71 10.6
2003-08-27 07:04:29 51°18.64 2°53.35 72.1 11.5 70 10.6
2003-08-27 07:04:33 51°18.65 2°53.37 72 11.5 72 10.8
2003-08-27 07:04:39 51°18.65 2°53.4 71.9 11.5 69 10.6
2003-08-27 07:04:41 51°18.65 2°53.41 72.5 11.6 71 10.6
2003-08-27 07:04:49 51°18.66 2°53.44 72.7 11.6 70 10.6
2003-08-27 07:04:59 51°18.67 2°53.49 72.4 11.5 72 10.7
2003-08-27 07:05:05 51°18.68 2°53.52 72.4 11.6 68 10.6
2003-08-27 07:05:09 51°18.68 2°53.54 71.5 11.6 71 10.6
2003-08-27 07:05:13 51°18.69 2°53.56 71.8 11.5 72 10.6
2003-08-27 07:05:17 51°18.69 2°53.58 71.9 11.5 69 10.6
2003-08-27 07:05:21 51°18.7 2°53.6 71.6 11.4 69 10.6
2003-08-27 07:05:29 51°18.71 2°53.64 71.1 11.3 70 10.6
2003-08-27 07:05:33 51°18.71 2°53.65 71.2 11.4 68 10.7
2003-08-27 07:05:37 51°18.71 2°53.67 70.6 11.4 71 10.7
2003-08-27 07:05:45 51°18.72 2°53.71 71.5 11.5 71 10.8
2003-08-27 07:05:49 51°18.73 2°53.73 71.5 11.5 68 10.7
2003-08-27 07:05:53 51°18.73 2°53.75 71.5 11.4 72 10.7
2003-08-27 07:05:57 51°18.74 2°53.77 71.1 11.4 70 10.7
2003-08-27 07:06:07 51°18.75 2°53.81 71.3 11.4 70 10.6
2003-08-27 07:06:27 51°18.77 2°53.91 71.8 11.4 70 10.7
2003-08-27 07:06:29 51°18.77 2°53.92 71.4 11.5 70 10.6
2003-08-27 07:06:37 51°18.78 2°53.96 70.9 11.5 68 10.7
2003-08-27 07:06:41 51°18.78 2°53.98 71.2 11.5 71 10.6
2003-08-27 07:06:45 51°18.79 2°54 72 11.6 69 10.7
2003-08-27 07:06:49 51°18.79 2°54.02 71.2 11.5 71 10.7
2003-08-27 07:06:57 51°18.8 2°54.05 71.7 11.6 71 10.6
2003-08-27 07:07:01 51°18.81 2°54.07 70.9 11.6 69 10.6
2003-08-27 07:07:07 51°18.81 2°54.1 71.1 11.6 70 10.7
2003-08-27 07:07:11 51°18.82 2°54.12 71 11.5 69 10.6
2003-08-27 07:07:21 51°18.83 2°54.17 71.2 11.5 72 10.5
2003-08-27 07:07:27 51°18.84 2°54.2 71.6 11.5 68 10.6
2003-08-27 07:07:31 51°18.84 2°54.22 71.1 11.6 71 10.7
2003-08-27 07:07:37 51°18.85 2°54.24 71.1 11.5 69 10.7
2003-08-27 07:07:41 51°18.85 2°54.26 71.1 11.4 70 10.6
2003-08-27 07:07:45 51°18.86 2°54.28 71.8 11.5 70 10.6
2003-08-27 07:07:49 51°18.86 2°54.3 71.3 11.5 69 10.6
2003-08-27 07:07:57 51°18.87 2°54.34 71.1 11.6 70 10.4
2003-08-27 07:08:01 51°18.87 2°54.36 71.2 11.6 69 10.5
2003-08-27 07:08:07 51°18.88 2°54.39 70.9 11.5 70 10.5
2003-08-27 07:08:09 51°18.88 2°54.4 70.9 11.6 69 10.5
2003-08-27 07:08:17 51°18.89 2°54.44 70.9 11.5 70 10.5
2003-08-27 07:08:21 51°18.9 2°54.46 71.1 11.5 69 10.5
2003-08-27 07:08:25 51°18.9 2°54.47 71.2 11.6 68 10.5
2003-08-27 07:08:29 51°18.9 2°54.49 70.9 11.6 70 10.5
2003-08-27 07:08:41 51°18.92 2°54.55 71.7 11.6 71 10.4
2003-08-27 07:08:45 51°18.92 2°54.57 71.4 11.6 69 10.5
2003-08-27 07:08:49 51°18.93 2°54.59 71.5 11.6 71 10.5
2003-08-27 07:08:53 51°18.93 2°54.61 71.8 11.7 71 10.5
2003-08-27 07:09:01 51°18.94 2°54.65 71.8 11.7 70 10.4
2003-08-27 07:09:05 51°18.94 2°54.67 71.7 11.6 70 10.5
2003-08-27 07:09:09 51°18.95 2°54.69 71.6 11.7 70 10.5
2003-08-27 07:09:15 51°18.96 2°54.72 71.9 11.6 68 10.4
2003-08-27 07:09:21 51°18.96 2°54.74 71.1 11.7 69 10.4
2003-08-27 07:09:25 51°18.97 2°54.76 71.1 11.7 70 10.3
2003-08-27 07:09:29 51°18.97 2°54.78 71.5 11.6 69 10.3
2003-08-27 07:09:41 51°18.99 2°54.84 71.1 11.8 69 10.4
2003-08-27 07:09:45 51°18.99 2°54.86 72 11.8 69 10.4
2003-08-27 07:09:51 51°19 2°54.89 70.6 11.7 68 10.5
2003-08-27 07:09:55 51°19 2°54.91 71.3 11.7 69 10.4
2003-08-27 07:10:01 51°19.01 2°54.94 71.6 11.8 69 10.5
2003-08-27 07:10:05 51°19.01 2°54.96 70.8 11.7 68 10.5
2003-08-27 07:10:09 51°19.02 2°54.98 71 11.8 69 10.5
2003-08-27 07:10:21 51°19.03 2°55.03 71.1 11.8 67 10.4
2003-08-27 07:10:25 51°19.04 2°55.05 71.1 11.9 69 10.4
2003-08-27 07:10:29 51°19.04 2°55.07 71.1 11.9 68 10.4
2003-08-27 07:10:35 51°19.05 2°55.1 70.9 11.9 69 10.4
2003-08-27 07:10:41 51°19.06 2°55.13 71.1 12 69 10.4
2003-08-27 07:10:45 51°19.06 2°55.15 70.2 11.9 67 10.5
2003-08-27 07:10:49 51°19.07 2°55.17 71.6 11.8 70 10.4
2003-08-27 07:10:57 51°19.08 2°55.21 71.2 11.8 69 10.3
2003-08-27 07:11:01 51°19.08 2°55.23 71.1 11.9 69 10.3
2003-08-27 07:11:09 51°19.09 2°55.27 71.5 12 70 10.3
2003-08-27 07:11:13 51°19.1 2°55.29 71.4 11.9 69 10.5
2003-08-27 07:11:17 51°19.1 2°55.31 71.1 11.9 68 10.4
2003-08-27 07:11:25 51°19.11 2°55.35 71.1 12 68 10.5
2003-08-27 07:11:29 51°19.11 2°55.37 71.8 12.1 70 10.5
2003-08-27 07:11:35 51°19.12 2°55.4 71.5 12 68 10.5
2003-08-27 07:11:39 51°19.13 2°55.42 70.8 12 69 10.6
2003-08-27 07:11:45 51°19.13 2°55.45 71.1 11.9 69 10.5
2003-08-27 07:11:49 51°19.14 2°55.47 72.1 12 70 10.5
2003-08-27 07:11:53 51°19.14 2°55.49 71.8 11.9 69 10.5
2003-08-27 07:11:59 51°19.15 2°55.52 72.1 11.9 70 10.5
2003-08-27 07:12:05 51°19.16 2°55.55 71 11.9 68 10.6
2003-08-27 07:12:09 51°19.16 2°55.57 71.2 12 70 10.5
2003-08-27 07:12:13 51°19.17 2°55.59 70.7 11.9 67 10.4
2003-08-27 07:12:17 51°19.17 2°55.61 71.3 12 69 10.5
2003-08-27 07:12:25 51°19.18 2°55.65 70.5 11.9 67 10.5
2003-08-27 07:12:29 51°19.19 2°55.67 70.4 11.9 69 10.4
2003-08-27 07:12:33 51°19.19 2°55.69 70.9 11.9 68 10.5
2003-08-27 07:12:39 51°19.2 2°55.71 70.3 11.8 67 10.4
2003-08-27 07:12:45 51°19.21 2°55.74 70.8 11.9 69 10.4
2003-08-27 07:12:49 51°19.21 2°55.76 71.1 12 68 10.5
2003-08-27 07:12:55 51°19.22 2°55.79 70.8 11.9 70 10.4
2003-08-27 07:12:59 51°19.22 2°55.81 72.1 11.9 70 10.4
2003-08-27 07:13:05 51°19.23 2°55.84 73.3 12 73 10.4
2003-08-27 07:13:09 51°19.23 2°55.86 72.7 11.9 70 10.4
2003-08-27 07:13:13 51°19.24 2°55.88 72.8 11.8 72 10.3
2003-08-27 07:13:19 51°19.24 2°55.91 74.2 12 71 10.4
2003-08-27 07:13:25 51°19.25 2°55.94 73.4 12 73 10.3
2003-08-27 07:13:29 51°19.25 2°55.96 73.8 11.9 72 10.3
2003-08-27 07:13:33 51°19.26 2°55.98 74.3 12 72 10.3
2003-08-27 07:13:37 51°19.26 2°56 74.4 12 72 10.4
2003-08-27 07:13:45 51°19.27 2°56.04 73.6 12 71 10.3
2003-08-27 07:13:49 51°19.27 2°56.06 73.7 12 72 10.3
2003-08-27 07:13:53 51°19.28 2°56.08 72.5 12 72 10.3
2003-08-27 07:13:57 51°19.28 2°56.1 72.6 12 70 10.3
2003-08-27 07:14:05 51°19.29 2°56.14 72.5 12.1 71 10.3
2003-08-27 07:14:09 51°19.3 2°56.16 72.6 11.9 72 10.2
2003-08-27 07:14:21 51°19.31 2°56.23 73.8 12.1 72 10.1
2003-08-27 07:14:27 51°19.32 2°56.25 73.5 11.9 70 10.3
2003-08-27 07:14:30 51°19.32 2°56.27 73.5 11.9 72 10.2
2003-08-27 07:14:42 51°19.33 2°56.33 72.9 12 72 10.2
2003-08-27 07:14:46 51°19.34 2°56.35 72.7 12 69 10.2
2003-08-27 07:14:50 51°19.34 2°56.37 73.4 12 72 10.2
2003-08-27 07:15:02 51°19.35 2°56.43 74.9 12.1 73 10.3
2003-08-27 07:15:06 51°19.36 2°56.45 74.4 12.1 71 10.1
2003-08-27 07:15:10 51°19.36 2°56.47 73.6 12 72 10.3
2003-08-27 07:15:18 51°19.37 2°56.51 73.5 12.1 70 10.2
2003-08-27 07:15:22 51°19.37 2°56.53 72.3 11.9 69 10.2
2003-08-27 07:15:30 51°19.38 2°56.57 72 12 71 10.2
2003-08-27 07:15:34 51°19.39 2°56.59 72.5 12 71 10.1
2003-08-27 07:15:42 51°19.4 2°56.63 72.9 11.8 71 9.9
2003-08-27 07:15:48 51°19.4 2°56.66 73.9 12 72 9.9
2003-08-27 07:15:54 51°19.41 2°56.69 74 12 73 10
2003-08-27 07:15:58 51°19.41 2°56.71 74.2 12 73 10
2003-08-27 07:16:02 51°19.42 2°56.73 74.5 12 71 10
2003-08-27 07:16:06 51°19.42 2°56.75 73.5 12 70 10.1
2003-08-27 07:16:14 51°19.43 2°56.79 72.6 12 70 10
2003-08-27 07:16:18 51°19.44 2°56.81 71.2 11.9 67 10
2003-08-27 07:16:30 51°19.45 2°56.87 70.5 11.9 68 10
2003-08-27 07:16:34 51°19.46 2°56.89 70.3 12 67 10
2003-08-27 07:16:40 51°19.46 2°56.92 70.4 11.9 69 10
2003-08-27 07:16:44 51°19.47 2°56.94 70.4 11.9 68 9.9
2003-08-27 07:16:50 51°19.47 2°56.97 70.5 11.9 68 10
2003-08-27 07:17:02 51°19.49 2°57.03 70.7 11.8 65 10
2003-08-27 07:17:06 51°19.49 2°57.05 70.1 11.9 70 10
2003-08-27 07:17:12 51°19.5 2°57.08 70.1 11.8 66 9.9
2003-08-27 07:17:18 51°19.51 2°57.11 70.1 11.8 69 9.8
2003-08-27 07:17:22 51°19.51 2°57.12 70.2 11.8 66 9.9
2003-08-27 07:17:26 51°19.52 2°57.14 69.6 11.8 69 9.9
2003-08-27 07:17:36 51°19.53 2°57.19 69.6 11.8 70 9.8
2003-08-27 07:17:42 51°19.54 2°57.22 70.2 11.6 66 10
2003-08-27 07:17:46 51°19.54 2°57.24 69.6 11.7 71 9.9
2003-08-27 07:17:50 51°19.55 2°57.26 70.2 11.7 69 9.8
2003-08-27 07:17:54 51°19.55 2°57.28 70.2 11.7 68 9.8
2003-08-27 07:18:00 51°19.56 2°57.31 70.5 11.7 69 9.8
2003-08-27 07:18:04 51°19.56 2°57.33 70.4 11.6 67 9.9
2003-08-27 07:18:14 51°19.58 2°57.37 70.3 11.7 66 10
2003-08-27 07:18:18 51°19.58 2°57.39 69.3 11.6 69 9.8
2003-08-27 07:18:26 51°19.59 2°57.43 69.5 11.7 69 9.8
2003-08-27 07:18:32 51°19.6 2°57.46 70 11.7 68 9.8
2003-08-27 07:18:36 51°19.6 2°57.48 70.6 11.6 69 9.8
2003-08-27 07:18:42 51°19.61 2°57.51 70.7 11.6 68 9.9
2003-08-27 07:18:46 51°19.62 2°57.53 70.6 11.6 68 9.9
2003-08-27 07:18:50 51°19.62 2°57.55 70.4 11.6 67 9.8
2003-08-27 07:18:58 51°19.63 2°57.58 70.1 11.6 67 9.7
2003-08-27 07:19:06 51°19.64 2°57.62 69.8 11.6 68 9.7
2003-08-27 07:19:12 51°19.65 2°57.65 70.8 11.7 68 9.8
2003-08-27 07:19:18 51°19.65 2°57.68 70.7 11.6 70 9.7
2003-08-27 07:19:22 51°19.66 2°57.7 71.1 11.6 68 9.6
2003-08-27 07:19:26 51°19.66 2°57.72 70.4 11.5 68 9.8
2003-08-27 07:19:30 51°19.67 2°57.74 70.6 11.6 67 9.8
2003-08-27 07:19:40 51°19.68 2°57.79 69.6 11.5 67 9.7
2003-08-27 07:19:46 51°19.69 2°57.81 70.4 11.6 70 9.8
2003-08-27 07:19:50 51°19.69 2°57.83 70 11.5 69 9.8
2003-08-27 07:19:58 51°19.7 2°57.87 70.3 11.6 69 9.8
2003-08-27 07:20:06 51°19.71 2°57.91 70.3 11.5 66 9.9
2003-08-27 07:20:10 51°19.72 2°57.93 69.6 11.5 68 9.9
2003-08-27 07:20:22 51°19.73 2°57.98 69.7 11.5 67 9.8
2003-08-27 07:20:26 51°19.73 2°58 69.9 11.6 71 9.8
2003-08-27 07:20:32 51°19.74 2°58.03 70.4 11.6 69 9.7
2003-08-27 07:20:42 51°19.75 2°58.08 70.6 11.6 67 9.7
2003-08-27 07:20:46 51°19.76 2°58.1 70.3 11.5 69 9.7
2003-08-27 07:20:50 51°19.76 2°58.12 70.5 11.6 69 9.7
2003-08-27 07:20:58 51°19.77 2°58.16 70.7 11.6 67 9.7
2003-08-27 07:21:02 51°19.78 2°58.18 70.5 11.7 69 9.7
2003-08-27 07:21:06 51°19.78 2°58.19 70.7 11.6 66 9.7
2003-08-27 07:21:10 51°19.79 2°58.21 69.9 11.7 68 9.7
2003-08-27 07:21:18 51°19.8 2°58.25 70.3 11.6 67 9.8
2003-08-27 07:21:22 51°19.8 2°58.27 69.8 11.5 67 9.7
2003-08-27 07:21:26 51°19.81 2°58.29 70.3 11.6 69 9.7
2003-08-27 07:21:34 51°19.82 2°58.33 70.5 11.6 66 9.7
2003-08-27 07:21:38 51°19.82 2°58.35 69.6 11.6 69 9.6
2003-08-27 07:21:42 51°19.83 2°58.37 69.9 11.5 67 9.7
2003-08-27 07:21:48 51°19.83 2°58.39 70 11.5 68 9.7
2003-08-27 07:22:02 51°19.85 2°58.46 70.1 11.5 68 9.7
2003-08-27 07:22:06 51°19.85 2°58.48 70.4 11.6 70 9.7
2003-08-27 07:22:10 51°19.86 2°58.5 71.6 11.7 68 9.7
2003-08-27 07:22:22 51°19.87 2°58.56 70.7 11.6 69 9.6
2003-08-27 07:22:26 51°19.88 2°58.57 70.3 11.5 69 9.6
2003-08-27 07:22:30 51°19.88 2°58.59 70.7 11.5 68 9.5
2003-08-27 07:22:38 51°19.89 2°58.63 69.7 11.5 68 9.5
2003-08-27 07:22:46 51°19.9 2°58.67 70.1 11.5 67 9.5
2003-08-27 07:22:50 51°19.91 2°58.69 70 11.5 68 9.5
2003-08-27 07:22:52 51°19.91 2°58.7 69.8 11.4 69 9.5
2003-08-27 07:23:02 51°19.92 2°58.74 69.8 11.4 67 9.5
2003-08-27 07:23:08 51°19.93 2°58.77 69.1 11.3 70 9.6
2003-08-27 07:23:10 51°19.93 2°58.78 70.4 11.5 68 9.5
2003-08-27 07:23:22 51°19.95 2°58.84 70.3 11.4 67 9.5
2003-08-27 07:23:26 51°19.95 2°58.86 70.5 11.4 68 9.6
2003-08-27 07:23:32 51°19.96 2°58.88 70.3 11.5 68 9.4
2003-08-27 07:23:38 51°19.96 2°58.91 70.6 11.5 67 9.5
2003-08-27 07:23:42 51°19.97 2°58.93 70.4 11.4 69 9.5
2003-08-27 07:23:46 51°19.97 2°58.95 70.8 11.5 70 9.5
2003-08-27 07:23:50 51°19.98 2°58.97 70.6 11.4 68 9.5
2003-08-27 07:24:02 51°19.99 2°59.03 70.5 11.6 65 9.4
2003-08-27 07:24:06 51°20 2°59.05 69.4 11.4 68 9.4
2003-08-27 07:24:12 51°20 2°59.07 70.1 11.4 68 9.5
2003-08-27 07:24:18 51°20.01 2°59.1 70 11.4 69 9.4
2003-08-27 07:24:26 51°20.02 2°59.14 70.6 11.5 68 9.5
2003-08-27 07:24:30 51°20.02 2°59.16 70.7 11.5 68 9.4
2003-08-27 07:24:42 51°20.04 2°59.22 70.7 11.5 68 9.4
2003-08-27 07:24:46 51°20.04 2°59.23 70 11.4 68 9.4
2003-08-27 07:24:52 51°20.05 2°59.26 70.4 11.5 69 9.4
2003-08-27 07:24:54 51°20.05 2°59.27 70.5 11.4 66 9.5
2003-08-27 07:25:02 51°20.06 2°59.31 69.3 11.4 70 9.4
2003-08-27 07:25:06 51°20.07 2°59.33 70.4 11.5 69 9.3
2003-08-27 07:25:10 51°20.07 2°59.35 70.1 11.5 69 9.2
2003-08-27 07:25:18 51°20.08 2°59.38 70.9 11.3 71 9.3
2003-08-27 07:25:22 51°20.09 2°59.4 71.2 11.4 68 9.3
2003-08-27 07:25:30 51°20.09 2°59.44 70.4 11.5 70 9.3
2003-08-27 07:25:34 51°20.1 2°59.46 70.6 11.4 69 9.4
2003-08-27 07:25:40 51°20.11 2°59.49 70.4 11.4 68 9.3
2003-08-27 07:25:44 51°20.11 2°59.51 70.1 11.5 69 9.2
2003-08-27 07:25:50 51°20.12 2°59.53 70.3 11.4 69 9.3
2003-08-27 07:25:58 51°20.13 2°59.57 70.2 11.4 68 9.2
2003-08-27 07:26:06 51°20.14 2°59.61 69.8 11.4 68 9.3
2003-08-27 07:26:16 51°20.15 2°59.66 70.3 11.5 68 9.1
2003-08-27 07:26:18 51°20.15 2°59.67 70.3 11.5 67 9.1
2003-08-27 07:26:24 51°20.16 2°59.69 70 11.4 70 9.2
2003-08-27 07:26:34 51°20.17 2°59.74 70.8 11.5 70 9.3
2003-08-27 07:26:40 51°20.18 2°59.77 70.6 11.4 68 9.3
2003-08-27 07:26:46 51°20.18 2°59.8 70.7 11.4 69 9.3
2003-08-27 07:26:54 51°20.19 2°59.84 70.9 11.5 69 9.1
2003-08-27 07:27:00 51°20.2 2°59.87 70.8 11.4 70 9.1
2003-08-27 07:27:06 51°20.21 2°59.89 70.8 11.4 68 9.3
2003-08-27 07:27:10 51°20.21 2°59.91 70.6 11.5 70 9.2
2003-08-27 07:27:14 51°20.21 2°59.93 70.7 11.4 68 9.3
2003-08-27 07:27:18 51°20.22 2°59.95 70.2 11.5 69 9.2
2003-08-27 07:27:24 51°20.23 2°59.98 70.7 11.4 68 9.2
2003-08-27 07:27:30 51°20.23 3°0.01 70 11.4 69 9.1
2003-08-27 07:27:38 51°20.24 3°0.05 70.8 11.3 69 9.2
2003-08-27 07:27:42 51°20.25 3°0.06 71.1 11.5 69 9.1
2003-08-27 07:27:48 51°20.25 3°0.09 71.1 11.4 69 9.1
2003-08-27 07:27:54 51°20.26 3°0.12 70.7 11.5 70 9
2003-08-27 07:28:04 51°20.27 3°0.17 70.3 11.4 69 9.1
2003-08-27 07:28:10 51°20.28 3°0.2 70.4 11.5 68 9.1
2003-08-27 07:28:18 51°20.29 3°0.23 69.6 11.4 70 9
2003-08-27 07:28:26 51°20.3 3°0.27 70.1 11.5 68 9.1
2003-08-27 07:28:30 51°20.3 3°0.29 69.8 11.6 69 9.1
2003-08-27 07:28:42 51°20.32 3°0.35 69.5 11.5 69 9
2003-08-27 07:28:46 51°20.32 3°0.37 69.4 11.5 69 8.9
2003-08-27 07:28:50 51°20.33 3°0.38 69.4 11.5 68 8.9
2003-08-27 07:28:56 51°20.33 3°0.41 69.6 11.5 68 8.9
2003-08-27 07:29:02 51°20.34 3°0.44 69.6 11.4 69 9
2003-08-27 07:29:04 51°20.34 3°0.45 70.4 11.4 69 9
2003-08-27 07:29:14 51°20.35 3°0.5 70 11.4 68 9.2
2003-08-27 07:29:20 51°20.36 3°0.53 69.7 11.4 69 9
2003-08-27 07:29:24 51°20.37 3°0.55 70.1 11.6 69 9
2003-08-27 07:29:30 51°20.37 3°0.57 69.8 11.5 68 9.1
2003-08-27 07:29:38 51°20.38 3°0.61 69.9 11.5 69 9.1
2003-08-27 07:29:44 51°20.39 3°0.64 70.6 11.6 69 9
2003-08-27 07:29:50 51°20.4 3°0.67 70.1 11.6 68 9.1
2003-08-27 07:29:52 51°20.4 3°0.68 70.6 11.5 68 9.1
2003-08-27 07:30:02 51°20.41 3°0.73 71 11.5 69 9
2003-08-27 07:30:06 51°20.41 3°0.75 70.4 11.5 68 9
2003-08-27 07:30:14 51°20.42 3°0.78 70.6 11.5 67 9
2003-08-27 07:30:18 51°20.43 3°0.8 70.4 11.6 69 9.1
2003-08-27 07:30:26 51°20.44 3°0.84 69.7 11.6 70 9
2003-08-27 07:30:30 51°20.44 3°0.86 70.4 11.5 68 8.8
2003-08-27 07:30:32 51°20.44 3°0.87 70.2 11.5 68 8.8
2003-08-27 07:30:38 51°20.45 3°0.9 70 11.5 70 8.8
2003-08-27 07:30:46 51°20.46 3°0.94 70 11.6 66 8.9
2003-08-27 07:30:50 51°20.46 3°0.96 70.1 11.6 70 9
2003-08-27 07:30:54 51°20.47 3°0.97 70.4 11.6 70 9.1
2003-08-27 07:31:02 51°20.48 3°1.01 70.3 11.5 69 9.1
2003-08-27 07:31:06 51°20.48 3°1.03 70.4 11.5 70 9
2003-08-27 07:31:10 51°20.49 3°1.05 70.4 11.6 68 9
2003-08-27 07:31:14 51°20.49 3°1.07 70.1 11.5 69 9
2003-08-27 07:31:22 51°20.5 3°1.11 70.3 11.6 68 9
2003-08-27 07:31:26 51°20.51 3°1.13 70 11.5 68 9.1
2003-08-27 07:31:30 51°20.51 3°1.15 69.3 11.6 70 9
2003-08-27 07:31:36 51°20.52 3°1.18 70 11.6 68 9.1
2003-08-27 07:31:42 51°20.52 3°1.2 70 11.5 70 9
2003-08-27 07:31:46 51°20.53 3°1.22 71.1 11.6 68 9.1
2003-08-27 07:31:52 51°20.54 3°1.25 70.9 11.6 71 9.1
2003-08-27 07:32:02 51°20.55 3°1.3 70.5 11.6 68 9.1
2003-08-27 07:32:08 51°20.55 3°1.33 70.2 11.7 69 9
2003-08-27 07:32:14 51°20.56 3°1.36 69.4 11.6 69 9
2003-08-27 07:32:18 51°20.57 3°1.38 69.9 11.6 69 8.9
2003-08-27 07:32:22 51°20.57 3°1.4 70.4 11.6 68 9.1
2003-08-27 07:32:28 51°20.58 3°1.43 70.2 11.6 70 9
2003-08-27 07:32:34 51°20.58 3°1.45 70.7 11.6 70 9
2003-08-27 07:32:38 51°20.59 3°1.47 70.6 11.6 68 9
2003-08-27 07:32:42 51°20.59 3°1.49 70.7 11.7 69 8.9
2003-08-27 07:32:46 51°20.6 3°1.51 70.9 11.7 70 9.1
2003-08-27 07:32:50 51°20.6 3°1.53 70.5 11.6 70 9
2003-08-27 07:32:58 51°20.61 3°1.57 71.7 11.7 69 9
2003-08-27 07:33:06 51°20.62 3°1.61 71 11.7 67 9.1
2003-08-27 07:33:10 51°20.63 3°1.63 70.4 11.7 70 9.1
2003-08-27 07:33:14 51°20.63 3°1.65 70 11.8 68 9
2003-08-27 07:33:18 51°20.63 3°1.67 69.7 11.8 69 9.1
2003-08-27 07:33:26 51°20.64 3°1.71 69.8 11.7 68 9.1
2003-08-27 07:33:30 51°20.65 3°1.73 69.7 11.7 70 9.2
2003-08-27 07:33:34 51°20.65 3°1.75 70.3 11.8 70 9.1
2003-08-27 07:33:38 51°20.66 3°1.77 70.9 11.8 69 9.1
2003-08-27 07:33:46 51°20.67 3°1.8 69.6 11.7 70 9.2
2003-08-27 07:33:50 51°20.67 3°1.82 70.3 11.8 66 9.1
2003-08-27 07:34:06 51°20.69 3°1.9 70.4 11.8 70 9.1
2003-08-27 07:34:12 51°20.7 3°1.93 70.7 11.9 69 9.1
2003-08-27 07:34:22 51°20.71 3°1.98 70.4 11.8 68 9.1
2003-08-27 07:34:26 51°20.72 3°2 70.2 11.9 68 9.1
2003-08-27 07:34:30 51°20.72 3°2.02 69.9 11.8 67 9.3
2003-08-27 07:34:38 51°20.73 3°2.06 69.6 11.7 69 9.1
2003-08-27 07:34:42 51°20.73 3°2.08 70.1 11.8 68 9.3
2003-08-27 07:34:46 51°20.74 3°2.1 70.3 11.8 68 9.1
2003-08-27 07:34:52 51°20.75 3°2.13 70.2 11.8 68 9.3
2003-08-27 07:35:02 51°20.76 3°2.17 69.7 11.9 68 9.1
2003-08-27 07:35:06 51°20.76 3°2.19 70.1 11.9 69 9.1
2003-08-27 07:35:12 51°20.77 3°2.22 70.8 11.8 69 9.2
2003-08-27 07:35:22 51°20.78 3°2.27 70.5 11.8 68 9.1
2003-08-27 07:35:26 51°20.79 3°2.29 70.2 11.8 66 9.2
2003-08-27 07:35:32 51°20.79 3°2.32 69.1 11.8 68 9.2
2003-08-27 07:35:42 51°20.81 3°2.37 69.6 11.8 68 9.2
2003-08-27 07:35:46 51°20.81 3°2.39 69.7 11.8 68 9.3
2003-08-27 07:35:52 51°20.82 3°2.42 69.8 11.8 69 9.2
2003-08-27 07:36:02 51°20.83 3°2.47 70.5 11.8 68 9.1
2003-08-27 07:36:06 51°20.83 3°2.49 69.5 11.5 68 9.1
2003-08-27 07:36:10 51°20.84 3°2.5 70.1 11.8 69 9.1
2003-08-27 07:36:18 51°20.85 3°2.54 70.8 11.7 69 9.1
2003-08-27 07:36:22 51°20.85 3°2.56 70.4 11.7 69 9.1
2003-08-27 07:36:26 51°20.86 3°2.58 70.9 11.7 69 9.2
2003-08-27 07:36:34 51°20.87 3°2.62 71 11.7 69 9.3
2003-08-27 07:36:38 51°20.87 3°2.64 70.6 11.7 70 9.3
2003-08-27 07:36:42 51°20.88 3°2.66 70.6 11.8 68 9.2
2003-08-27 07:36:48 51°20.88 3°2.69 70.3 11.7 69 9.2
2003-08-27 07:37:02 51°20.9 3°2.76 70.7 11.8 68 9.4
2003-08-27 07:37:06 51°20.9 3°2.78 70.2 11.7 70 9.3
2003-08-27 07:37:10 51°20.91 3°2.8 70.3 11.7 70 9.3
2003-08-27 07:37:22 51°20.92 3°2.85 69.8 11.8 70 9.1
2003-08-27 07:37:26 51°20.93 3°2.87 70.7 11.8 68 9.2
2003-08-27 07:37:30 51°20.93 3°2.89 69.8 11.7 69 9.3
2003-08-27 07:37:38 51°20.94 3°2.93 70.4 11.8 68 9.2
2003-08-27 07:37:46 51°20.95 3°2.97 70.2 11.6 68 9.4
2003-08-27 07:37:50 51°20.95 3°2.99 70.2 11.7 71 9.4
2003-08-27 07:37:54 51°20.96 3°3.01 70.7 11.8 68 9.4
2003-08-27 07:37:58 51°20.96 3°3.03 70.2 11.9 71 9.4
2003-08-27 07:38:06 51°20.97 3°3.07 70.4 11.9 69 9.4
2003-08-27 07:38:10 51°20.98 3°3.09 70.3 11.9 69 9.4
2003-08-27 07:38:14 51°20.98 3°3.11 69.6 11.8 68 9.4
2003-08-27 07:38:18 51°20.99 3°3.13 69.1 11.8 68 9.3
2003-08-27 07:38:26 51°21 3°3.17 69.4 11.8 68 9.5
2003-08-27 07:38:30 51°21 3°3.18 69.5 11.8 69 9.5
2003-08-27 07:38:34 51°21.01 3°3.2 70 11.7 69 9.4
2003-08-27 07:38:38 51°21.01 3°3.22 70 11.7 68 9.4
2003-08-27 07:38:46 51°21.02 3°3.26 70.6 11.9 70 9.4
2003-08-27 07:38:54 51°21.03 3°3.3 71.2 11.8 70 9.4
2003-08-27 07:38:58 51°21.03 3°3.32 71.8 11.9 70 9.4
2003-08-27 07:39:06 51°21.04 3°3.36 70.4 11.7 69 9.5
2003-08-27 07:39:10 51°21.05 3°3.38 70.8 11.8 68 9.5
2003-08-27 07:39:14 51°21.05 3°3.4 70.3 11.8 70 9.4
2003-08-27 07:39:18 51°21.06 3°3.42 70.2 11.9 70 9.5
2003-08-27 07:39:26 51°21.07 3°3.46 70.8 11.8 69 9.3
2003-08-27 07:39:32 51°21.07 3°3.49 70.9 11.8 70 9.4
2003-08-27 07:39:42 51°21.09 3°3.54 70.3 11.8 70 9.5
2003-08-27 07:39:46 51°21.09 3°3.56 70.9 11.8 69 9.5
2003-08-27 07:39:52 51°21.1 3°3.59 70.2 11.9 69 9.4
2003-08-27 07:40:02 51°21.11 3°3.63 70 11.8 69 9.4
2003-08-27 07:40:06 51°21.11 3°3.65 70.1 11.9 70 9.4
2003-08-27 07:40:14 51°21.12 3°3.69 70.3 11.9 71 9.4
2003-08-27 07:40:18 51°21.13 3°3.71 70.4 11.9 68 9.5
2003-08-27 07:40:26 51°21.14 3°3.75 70.4 11.8 69 9.6
2003-08-27 07:40:30 51°21.14 3°3.77 70.3 11.9 68 9.5
2003-08-27 07:40:34 51°21.15 3°3.79 69.4 11.9 70 9.4
2003-08-27 07:40:38 51°21.15 3°3.81 70.1 11.8 67 9.5
2003-08-27 07:40:42 51°21.16 3°3.83 69.8 11.8 70 9.7
2003-08-27 07:40:48 51°21.16 3°3.86 70.1 11.8 68 9.6
2003-08-27 07:41:00 51°21.18 3°3.92 70.3 11.7 71 9.5
2003-08-27 07:41:06 51°21.18 3°3.95 70.8 11.8 69 9.5
2003-08-27 07:41:10 51°21.19 3°3.97 70.6 11.7 68 9.6
2003-08-27 07:41:14 51°21.19 3°3.99 70.3 11.6 70 9.6
2003-08-27 07:41:22 51°21.2 3°4.03 69.5 11.8 70 9.7
2003-08-27 07:41:26 51°21.21 3°4.04 69.9 11.8 68 9.5
2003-08-27 07:41:30 51°21.21 3°4.06 69.6 11.7 70 9.5
2003-08-27 07:41:42 51°21.23 3°4.12 70.2 11.7 70 9.6
2003-08-27 07:41:46 51°21.23 3°4.14 70.2 11.8 70 9.6
2003-08-27 07:41:52 51°21.24 3°4.17 70.6 11.8 68 9.5
2003-08-27 07:41:56 51°21.24 3°4.19 69.8 11.8 70 9.5
2003-08-27 07:42:02 51°21.25 3°4.22 70.3 11.9 69 9.7
2003-08-27 07:42:06 51°21.25 3°4.24 70.1 11.8 69 9.7
2003-08-27 07:42:10 51°21.26 3°4.26 69.7 11.8 69 9.7
2003-08-27 07:42:16 51°21.26 3°4.29 70.7 11.8 68 9.7
2003-08-27 07:42:22 51°21.27 3°4.32 69.8 11.8 70 9.7
2003-08-27 07:42:26 51°21.28 3°4.34 69.7 11.7 66 9.8
2003-08-27 07:42:30 51°21.28 3°4.36 69.9 11.7 72 9.9
2003-08-27 07:42:46 51°21.3 3°4.43 69.6 11.7 70 9.9
2003-08-27 07:42:52 51°21.31 3°4.46 69.9 11.7 69 9.9
2003-08-27 07:43:02 51°21.32 3°4.51 70.5 11.8 72 9.8
2003-08-27 07:43:06 51°21.32 3°4.53 71.1 11.7 69 9.9
2003-08-27 07:43:14 51°21.33 3°4.57 70.9 11.7 70 10
2003-08-27 07:43:18 51°21.34 3°4.59 70.9 11.8 69 9.9
2003-08-27 07:43:22 51°21.34 3°4.61 70.3 11.6 69 9.9
2003-08-27 07:43:26 51°21.35 3°4.63 70.3 11.6 71 9.9
2003-08-27 07:43:30 51°21.35 3°4.65 70.8 11.7 69 10
2003-08-27 07:43:42 51°21.36 3°4.71 71.6 11.7 69 10.1
2003-08-27 07:43:46 51°21.37 3°4.73 71 11.7 72 9.8
2003-08-27 07:43:52 51°21.38 3°4.75 71.1 11.6 70 9.9
2003-08-27 07:43:58 51°21.38 3°4.78 70.8 11.6 69 9.9
2003-08-27 07:44:02 51°21.39 3°4.8 70.4 11.7 70 9.9
2003-08-27 07:44:06 51°21.39 3°4.82 70.5 11.8 69 10.1
2003-08-27 07:44:10 51°21.4 3°4.84 70.2 11.6 69 9.9
2003-08-27 07:44:14 51°21.4 3°4.86 70.4 11.7 68 10
2003-08-27 07:44:22 51°21.41 3°4.9 70.3 11.7 68 10
2003-08-27 07:44:30 51°21.42 3°4.94 69.4 11.8 68 9.9
2003-08-27 07:44:36 51°21.43 3°4.97 70.1 11.8 69 10
2003-08-27 07:44:40 51°21.43 3°4.99 69.8 11.8 68 10
2003-08-27 07:44:46 51°21.44 3°5.02 69.8 11.7 69 10
2003-08-27 07:44:50 51°21.44 3°5.04 70.4 11.7 69 10
2003-08-27 07:44:54 51°21.45 3°5.06 70.8 11.8 69 10.1
2003-08-27 07:45:00 51°21.45 3°5.09 70.2 11.8 69 10.1
2003-08-27 07:45:06 51°21.46 3°5.11 70.1 11.9 70 10.1
2003-08-27 07:45:14 51°21.47 3°5.15 69.9 11.8 70 10
2003-08-27 07:45:18 51°21.47 3°5.17 70.6 11.6 69 10
2003-08-27 07:45:22 51°21.48 3°5.19 70.7 11.7 71 9.9
2003-08-27 07:45:30 51°21.49 3°5.23 70.7 11.7 68 9.8
2003-08-27 07:45:34 51°21.49 3°5.25 70.6 11.9 69 9.9
2003-08-27 07:45:38 51°21.5 3°5.27 70.2 11.8 69 9.8
2003-08-27 07:45:54 51°21.52 3°5.35 71.5 11.8 72 10.1
2003-08-27 07:45:58 51°21.52 3°5.37 73.3 11.8 72 10
2003-08-27 07:46:04 51°21.52 3°5.4 74 11.8 76 10.1
2003-08-27 07:46:10 51°21.53 3°5.43 74.7 11.7 74 10.2
2003-08-27 07:46:12 51°21.53 3°5.44 75.3 11.7 76 10.1
2003-08-27 07:46:26 51°21.54 3°5.51 76.2 11.9 77 10.2
2003-08-27 07:46:34 51°21.55 3°5.55 75.8 11.8 77 10.1
2003-08-27 07:46:40 51°21.55 3°5.58 76.6 11.9 75 10
2003-08-27 07:46:44 51°21.56 3°5.6 75.9 11.9 76 10.1
2003-08-27 07:46:54 51°21.57 3°5.65 75.9 11.7 76 10.2
2003-08-27 07:47:00 51°21.57 3°5.68 76.2 12 76 10
2003-08-27 07:47:06 51°21.58 3°5.71 75.4 12 73 10
2003-08-27 07:47:10 51°21.58 3°5.73 75.6 11.9 75 10
2003-08-27 07:47:14 51°21.58 3°5.75 76.2 11.9 76 9.9
2003-08-27 07:47:26 51°21.59 3°5.82 76.5 11.9 75 9.9
2003-08-27 07:47:32 51°21.6 3°5.85 76 11.9 76 9.9
2003-08-27 07:47:44 51°21.61 3°5.91 75.4 11.9 74 9.9
2003-08-27 07:47:46 51°21.61 3°5.92 75.4 12 76 10
2003-08-27 07:47:54 51°21.62 3°5.96 76 12 75 10.1
2003-08-27 07:47:58 51°21.62 3°5.98 75.8 12 74 10.1
2003-08-27 07:48:06 51°21.63 3°6.02 76 11.9 74 10
2003-08-27 07:48:10 51°21.63 3°6.04 75.1 11.9 74 10.1
2003-08-27 07:48:22 51°21.64 3°6.1 75.2 11.9 73 10.2
2003-08-27 07:48:28 51°21.65 3°6.13 75.4 11.9 75 10.3
2003-08-27 07:48:34 51°21.65 3°6.16 76.1 12.1 75 10.2
2003-08-27 07:48:38 51°21.66 3°6.18 76.2 12.2 74 10.2
2003-08-27 07:48:42 51°21.66 3°6.21 75.4 12 73 10.4
2003-08-27 07:48:48 51°21.66 3°6.24 75.4 11.9 74 10.3
2003-08-27 07:48:50 51°21.67 3°6.25 75.7 12.1 74 10.3
2003-08-27 07:49:02 51°21.68 3°6.31 75.3 12.1 74 10.3
2003-08-27 07:49:06 51°21.68 3°6.33 75.6 12.1 74 10.3
2003-08-27 07:49:10 51°21.68 3°6.35 75.6 12 74 10.4
2003-08-27 07:49:14 51°21.69 3°6.37 75.4 12.2 76 10.3
2003-08-27 07:49:22 51°21.7 3°6.41 75.5 12.2 73 10.3